Time;durP1;ratioP1;P1;durP2;ratioP2;P2;SDS_P1;SDS_P2;PMS_P1;PMS_P2;Temp;Humidity;BMP_temperature;BMP_pressure;BME280_temperature;BME280_humidity;BME280_pressure;Samples;Min_cycle;Max_cycle;Signal;HPM_P1;HPM_P2
2023/05/13 00:01:18;;;;;;;11.50;8.55;;;11.10;99.90;;;;;;4980981;28;20125;-70
2023/05/13 00:03:43;;;;;;;10.00;8.30;;;11.00;99.90;;;;;;4981595;28;20504;-70
2023/05/13 00:06:09;;;;;;;10.57;7.63;;;11.20;99.90;;;;;;4973869;28;20100;-70
2023/05/13 00:08:35;;;;;;;11.55;7.85;;;;;;;;;;4976499;28;20038;-70
2023/05/13 00:11:01;;;;;;;13.18;8.60;;;;;;;;;;4971304;28;20548;-70
2023/05/13 00:13:27;;;;;;;11.32;9.13;;;;;;;;;;4994506;28;20045;-70
2023/05/13 00:15:53;;;;;;;14.10;9.20;;;;;;;;;;4975982;28;20508;-70
2023/05/13 00:18:19;;;;;;;11.57;8.68;;;;;;;;;;4994440;28;20045;-70
2023/05/13 00:20:45;;;;;;;11.02;9.48;;;;;;;;;;4995319;28;20042;-70
2023/05/13 00:23:11;;;;;;;9.23;8.25;;;;;;;;;;4973697;28;20050;-70
2023/05/13 00:25:37;;;;;;;13.55;8.05;;;;;;;;;;4977637;28;20053;-70
2023/05/13 00:28:04;;;;;;;10.43;7.47;;;11.10;99.90;;;;;;4975777;28;20042;-70
2023/05/13 00:30:29;;;;;;;14.20;7.72;;;10.90;99.90;;;;;;4989606;28;20042;-70
2023/05/13 00:32:55;;;;;;;8.80;6.88;;;;;;;;;;4977751;28;20052;-70
2023/05/13 00:35:21;;;;;;;10.23;6.60;;;;;;;;;;4977925;28;20050;-70
2023/05/13 00:37:47;;;;;;;10.13;7.80;;;;;;;;;;4985990;28;20546;-70
2023/05/13 00:40:22;;;;;;;12.43;8.45;;;;;;;;;;4990867;28;20046;-70
2023/05/13 00:42:48;;;;;;;8.95;6.78;;;;;;;;;;4986494;28;20822;-70
2023/05/13 00:45:14;;;;;;;11.20;9.07;;;10.70;99.90;;;;;;4980023;28;20082;-70
2023/05/13 00:47:41;;;;;;;11.40;8.90;;;;;;;;;;4979531;28;20041;-70
2023/05/13 00:50:09;;;;;;;9.27;8.27;;;10.80;99.90;;;;;;4994503;28;20042;-70
2023/05/13 00:52:36;;;;;;;10.07;7.90;;;;;;;;;;4989792;28;20567;-70
2023/05/13 00:55:03;;;;;;;9.90;8.05;;;;;;;;;;4975777;28;20058;-70
2023/05/13 00:57:29;;;;;;;11.65;9.15;;;10.30;99.90;;;;;;4975394;28;20037;-70
2023/05/13 00:59:55;;;;;;;11.40;9.93;;;;;;;;;;4967645;28;20057;-70
2023/05/13 01:02:30;;;;;;;12.10;9.70;;;;;;;;;;4972384;28;20077;-70
2023/05/13 01:05:03;;;;;;;11.80;7.68;;;;;;;;;;4983480;28;20125;-70
2023/05/13 01:07:56;;;;;;;11.80;10.60;;;;;;;;;;4978998;28;20042;-70
2023/05/13 01:10:45;;;;;;;10.93;9.77;;;10.50;99.90;;;;;;4968273;28;20501;-70
2023/05/13 01:13:12;;;;;;;11.63;9.23;;;;;;;;;;4976142;28;20090;-70
2023/05/13 01:15:47;;;;;;;11.82;8.85;;;;;;;;;;4999488;28;20050;-70
2023/05/13 01:18:18;;;;;;;11.82;9.85;;;10.60;99.90;;;;;;4978489;28;20125;-70
2023/05/13 01:20:44;;;;;;;12.43;9.55;;;;;;;;;;4980827;28;20564;-70
2023/05/13 01:23:10;;;;;;;11.98;10.15;;;10.60;99.90;;;;;;4975030;28;20050;-70
2023/05/13 01:25:36;;;;;;;11.18;9.70;;;;;;;;;;4995077;28;20404;-70
2023/05/13 01:28:02;;;;;;;13.25;11.18;;;;;;;;;;4997296;28;20038;-70
2023/05/13 01:30:29;;;;;;;12.05;10.27;;;;;;;;;;4981973;28;20041;-70
2023/05/13 01:32:55;;;;;;;11.90;9.73;;;;;;;;;;4994061;28;20056;-70
2023/05/13 01:35:23;;;;;;;12.20;9.48;;;10.40;99.90;;;;;;5001192;28;20038;-70
2023/05/13 01:37:49;;;;;;;11.70;9.43;;;;;;;;;;4994301;28;20044;-70
2023/05/13 01:40:15;;;;;;;11.70;10.45;;;10.30;99.90;;;;;;4975108;28;20093;-70
2023/05/13 01:42:41;;;;;;;12.57;10.45;;;10.60;99.90;;;;;;5000530;28;20050;-70
2023/05/13 01:45:07;;;;;;;10.35;9.30;;;;;;;;;;5000032;28;20049;-70
2023/05/13 01:47:33;;;;;;;11.65;10.07;;;;;;;;;;4981596;28;20447;-70
2023/05/13 01:49:59;;;;;;;12.35;9.82;;;;;;;;;;5000690;28;20045;-70
2023/05/13 01:52:25;;;;;;;12.70;10.68;;;10.50;99.90;;;;;;4983981;28;20046;-70
2023/05/13 01:54:50;;;;;;;14.50;11.07;;;10.40;99.90;;;;;;4975329;28;20046;-70
2023/05/13 01:57:16;;;;;;;12.40;10.75;;;;;;;;;;4983570;28;20053;-70
2023/05/13 01:59:42;;;;;;;18.15;11.75;;;;;;;;;;4971124;28;20043;-70
2023/05/13 02:02:08;;;;;;;16.27;10.93;;;;;;;;;;4981938;28;20052;-70
2023/05/13 02:04:34;;;;;;;17.25;12.05;;;;;;;;;;4977692;28;20046;-70
2023/05/13 02:07:00;;;;;;;16.15;12.52;;;;;;;;;;4981619;28;20136;-70
2023/05/13 02:09:26;;;;;;;19.45;11.73;;;;;;;;;;4987097;28;20046;-70
2023/05/13 02:11:52;;;;;;;13.60;11.35;;;;;;;;;;4973828;28;20042;-70
2023/05/13 02:14:19;;;;;;;12.52;10.52;;;;;;;;;;4983112;28;20136;-70
2023/05/13 02:16:45;;;;;;;11.55;9.75;;;;;;;;;;5000720;28;20061;-70
2023/05/13 02:19:10;;;;;;;15.20;10.00;;;10.10;99.90;;;;;;4989601;28;20038;-70
2023/05/13 02:21:37;;;;;;;13.25;10.93;;;;;;;;;;4990929;28;20393;-70
2023/05/13 02:24:03;;;;;;;14.07;11.27;;;;;;;;;;4977829;28;20050;-70
2023/05/13 02:26:29;;;;;;;13.57;10.95;;;;;;;;;;4996463;28;20041;-70
2023/05/13 02:28:55;;;;;;;17.40;12.43;;;;;;;;;;4972259;28;20046;-70
2023/05/13 02:31:20;;;;;;;17.42;11.15;;;;;;;;;;4975774;28;20050;-70
2023/05/13 02:33:46;;;;;;;17.67;10.45;;;10.00;99.90;;;;;;4996685;28;20042;-70
2023/05/13 02:36:12;;;;;;;14.70;11.57;;;;;;;;;;4977085;28;20121;-70
2023/05/13 02:38:38;;;;;;;14.13;10.60;;;;;;;;;;4967165;28;20070;-70
2023/05/13 02:41:04;;;;;;;12.48;10.70;;;;;;;;;;4976431;28;20657;-70
2023/05/13 02:43:30;;;;;;;13.20;10.93;;;;;;;;;;4975340;28;20050;-70
2023/05/13 02:45:56;;;;;;;12.05;9.93;;;;;;;;;;5000761;28;20046;-70
2023/05/13 02:48:21;;;;;;;13.40;10.90;;;9.70;99.90;;;;;;4968566;28;20047;-70
2023/05/13 02:50:47;;;;;;;15.20;10.85;;;;;;;;;;4971490;28;20060;-70
2023/05/13 02:53:13;;;;;;;13.32;10.80;;;;;;;;;;4998178;28;20467;-70
2023/05/13 02:55:39;;;;;;;15.35;12.15;;;;;;;;;;4980988;28;20074;-70
2023/05/13 02:58:05;;;;;;;14.93;10.57;;;9.50;99.90;;;;;;4977192;28;20048;-70
2023/05/13 03:00:31;;;;;;;12.52;10.75;;;;;;;;;;4990804;28;20511;-70
2023/05/13 03:02:56;;;;;;;15.10;11.93;;;9.60;99.90;;;;;;4990608;28;20053;-70
2023/05/13 03:05:22;;;;;;;15.23;11.05;;;;;;;;;;4991533;28;20551;-70
2023/05/13 03:07:48;;;;;;;13.13;9.95;;;;;;;;;;4978462;28;20053;-70
2023/05/13 03:10:14;;;;;;;18.80;12.02;;;;;;;;;;4992753;28;20042;-70
2023/05/13 03:12:42;;;;;;;13.27;11.88;;;;;;;;;;4995531;28;20096;-70
2023/05/13 03:15:08;;;;;;;16.52;11.40;;;;;;;;;;4979395;28;20699;-70
2023/05/13 03:17:34;;;;;;;16.48;11.93;;;;;;;;;;4981907;28;20046;-70
2023/05/13 03:20:00;;;;;;;14.90;12.48;;;9.50;99.90;;;;;;4983879;28;20037;-70
2023/05/13 03:22:25;;;;;;;14.65;11.98;;;9.60;99.90;;;;;;4983291;28;20049;-70
2023/05/13 03:24:52;;;;;;;17.00;11.93;;;;;;;;;;4977918;28;20424;-70
2023/05/13 03:27:18;;;;;;;16.73;12.15;;;9.50;99.90;;;;;;4978812;28;20517;-70
2023/05/13 03:29:43;;;;;;;18.52;12.90;;;;;;;;;;4985726;28;20038;-70
2023/05/13 03:32:10;;;;;;;19.55;13.85;;;;;;;;;;4991788;28;20045;-70
2023/05/13 03:34:36;;;;;;;19.70;15.00;;;9.80;99.90;;;;;;4983297;28;20058;-70
2023/05/13 03:37:02;;;;;;;23.75;15.75;;;;;;;;;;4979703;28;20125;-70
2023/05/13 03:39:28;;;;;;;23.55;16.00;;;;;;;;;;4982989;28;20049;-70
2023/05/13 03:41:54;;;;;;;20.25;15.45;;;;;;;;;;4986970;28;20168;-70
2023/05/13 03:44:20;;;;;;;23.73;15.45;;;;;;;;;;4979858;28;20185;-70
2023/05/13 03:46:46;;;;;;;22.95;15.50;;;;;;;;;;4997651;28;20569;-70
2023/05/13 03:49:12;;;;;;;18.58;15.00;;;;;;;;;;4979326;28;20045;-70
2023/05/13 03:51:38;;;;;;;20.63;14.63;;;9.60;99.90;;;;;;4990496;28;20117;-70
2023/05/13 03:54:04;;;;;;;14.75;13.15;;;;;;;;;;4973883;28;20042;-70
2023/05/13 03:56:30;;;;;;;19.10;14.82;;;;;;;;;;4970334;28;20496;-70
2023/05/13 03:58:56;;;;;;;18.05;14.65;;;;;;;;;;4987326;28;20039;-69
2023/05/13 04:01:21;;;;;;;23.50;15.82;;;9.70;99.90;;;;;;4975682;28;20575;-69
2023/05/13 04:03:49;;;;;;;21.17;14.98;;;;;;;;;;4979277;28;20444;-69
2023/05/13 04:06:15;;;;;;;19.73;14.07;;;;;;;;;;4982335;28;20119;-69
2023/05/13 04:08:41;;;;;;;20.10;14.13;;;;;;;;;;4969030;28;20049;-69
2023/05/13 04:11:06;;;;;;;18.48;14.60;;;10.00;99.90;;;;;;4988561;28;20050;-69
2023/05/13 04:13:34;;;;;;;19.10;15.25;;;;;;;;;;4981072;28;20054;-69
2023/05/13 04:16:01;;;;;;;20.52;15.23;;;;;;;;;;4975491;28;20046;-69
2023/05/13 04:18:28;;;;;;;21.00;14.98;;;10.10;99.90;;;;;;4988352;28;20038;-69
2023/05/13 04:20:53;;;;;;;19.63;14.48;;;10.10;99.90;;;;;;4982855;28;20132;-69
2023/05/13 04:23:19;;;;;;;17.95;14.93;;;;;;;;;;4973830;28;20064;-69
2023/05/13 04:25:49;;;;;;;19.40;14.30;;;;;;;;;;4982717;28;20065;-69
2023/05/13 04:28:16;;;;;;;23.05;14.75;;;;;;;;;;4971268;28;20053;-69
2023/05/13 04:30:42;;;;;;;19.33;14.40;;;10.20;99.90;;;;;;4976298;28;20042;-69
2023/05/13 04:33:08;;;;;;;20.10;14.80;;;;;;;;;;4977070;28;20057;-69
2023/05/13 04:35:33;;;;;;;21.92;15.05;;;10.60;99.90;;;;;;4974030;28;20041;-69
2023/05/13 04:37:59;;;;;;;22.05;14.32;;;;;;;;;;4971076;28;20054;-69
2023/05/13 04:40:25;;;;;;;22.20;15.40;;;;;;;;;;4970888;28;20516;-69
2023/05/13 04:42:53;;;;;;;17.17;13.43;;;;;;;;;;4970225;28;20497;-69
2023/05/13 04:45:20;;;;;;;22.30;14.07;;;;;;;;;;4987671;28;20050;-69
2023/05/13 04:47:46;;;;;;;16.13;12.48;;;;;;;;;;4992899;28;20042;-69
2023/05/13 04:50:12;;;;;;;16.15;13.68;;;;;;;;;;4972526;28;20569;-69
2023/05/13 04:52:38;;;;;;;19.02;12.93;;;;;;;;;;4992369;28;20120;-69
2023/05/13 04:55:04;;;;;;;18.08;13.18;;;;;;;;;;4981538;28;20381;-69
2023/05/13 04:57:30;;;;;;;16.67;12.65;;;;;;;;;;4979729;28;20491;-69
2023/05/13 04:59:56;;;;;;;19.17;12.80;;;;;;;;;;4977106;28;20045;-69
2023/05/13 05:02:22;;;;;;;21.90;13.32;;;;;;;;;;4975755;28;20050;-69
2023/05/13 05:04:48;;;;;;;23.08;12.07;;;11.30;99.90;;;;;;4968856;28;20050;-69
2023/05/13 05:07:14;;;;;;;20.67;14.02;;;;;;;;;;4978164;28;20049;-69
2023/05/13 05:09:40;;;;;;;19.67;12.75;;;;;;;;;;4982722;28;20045;-69
2023/05/13 05:12:06;;;;;;;17.67;12.25;;;;;;;;;;4968360;28;20149;-69
2023/05/13 05:14:32;;;;;;;20.27;12.18;;;;;;;;;;4971894;28;20177;-69
2023/05/13 05:16:58;;;;;;;16.33;11.77;;;12.20;99.90;;;;;;4988676;28;20125;-69
2023/05/13 05:19:24;;;;;;;19.17;11.95;;;;;;;;;;4969375;28;20038;-70
2023/05/13 05:21:52;;;;;;;16.50;10.82;;;12.30;99.90;;;;;;4983659;28;20442;-69
2023/05/13 05:24:18;;;;;;;14.00;10.98;;;12.40;99.90;;;;;;4987726;28;20077;-69
2023/05/13 05:26:44;;;;;;;18.60;10.90;;;;;;;;;;4987227;28;20511;-70
2023/05/13 05:29:10;;;;;;;15.05;11.38;;;;;;;;;;4978233;28;20050;-69
2023/05/13 05:31:36;;;;;;;18.95;11.05;;;;;;;;;;4976223;28;20065;-70
2023/05/13 05:34:02;;;;;;;17.98;11.43;;;12.60;99.90;;;;;;4979151;28;20114;-69
2023/05/13 05:36:28;;;;;;;18.45;10.68;;;12.80;99.90;;;;;;4977960;28;20042;-69
2023/05/13 05:38:54;;;;;;;11.60;10.35;;;;;;;;;;4984587;28;20080;-70
2023/05/13 05:41:21;;;;;;;17.20;10.43;;;;;;;;;;4980366;28;20132;-70
2023/05/13 05:43:47;;;;;;;12.32;9.50;;;;;;;;;;5003301;28;20085;-70
2023/05/13 05:46:13;;;;;;;14.80;10.77;;;;;;;;;;4976504;28;20046;-70
2023/05/13 05:48:38;;;;;;;15.63;9.45;;;13.70;99.90;;;;;;4997539;28;20134;-70
2023/05/13 05:51:04;;;;;;;15.10;10.05;;;14.20;99.90;;;;;;4984196;28;20562;-69
2023/05/13 05:53:31;;;;;;;19.05;10.05;;;;;;;;;;5000543;28;20787;-70
2023/05/13 05:55:57;;;;;;;12.32;10.02;;;;;;;;;;4996477;28;20049;-70
2023/05/13 05:58:22;;;;;;;13.48;8.98;;;14.50;99.90;;;;;;4991956;28;20427;-70
2023/05/13 06:00:48;;;;;;;12.38;9.00;;;;;;;;;;5008367;28;20045;-70
2023/05/13 06:03:14;;;;;;;13.88;8.63;;;14.80;99.90;;;;;;4993378;28;20056;-70
2023/05/13 06:05:39;;;;;;;12.75;9.15;;;15.00;99.90;;;;;;4990121;28;20041;-70
2023/05/13 06:08:05;;;;;;;14.65;9.25;;;15.20;99.90;;;;;;4992972;28;20051;-70
2023/05/13 06:10:30;;;;;;;17.75;8.70;;;15.30;99.90;;;;;;4975307;28;20042;-70
2023/05/13 06:12:56;;;;;;;13.68;8.32;;;15.50;99.90;;;;;;5001167;28;20077;-70
2023/05/13 06:15:22;;;;;;;12.68;7.63;;;15.70;99.90;;;;;;4982061;28;20057;-70
2023/05/13 06:17:47;;;;;;;13.95;8.15;;;16.00;99.90;;;;;;4979179;28;20778;-70
2023/05/13 06:20:13;;;;;;;13.93;7.72;;;16.60;99.90;;;;;;4988590;28;20045;-70
2023/05/13 06:22:40;;;;;;;12.55;8.05;;;17.20;99.90;;;;;;5007357;28;20044;-70
2023/05/13 06:25:06;;;;;;;9.55;6.85;;;18.20;99.90;;;;;;4989626;28;20046;-70
2023/05/13 06:27:32;;;;;;;11.77;6.43;;;19.10;99.90;;;;;;4977261;28;20416;-70
2023/05/13 06:29:58;;;;;;;10.52;7.13;;;20.00;99.90;;;;;;4986377;28;20081;-70
2023/05/13 06:32:24;;;;;;;9.70;6.50;;;20.60;99.90;;;;;;4978086;28;20065;-70
2023/05/13 06:34:51;;;;;;;9.55;6.22;;;21.10;99.90;;;;;;4975743;28;20484;-70
2023/05/13 06:37:16;;;;;;;8.95;5.15;;;21.40;99.90;;;;;;4971746;28;20054;-70
2023/05/13 06:39:42;;;;;;;9.82;5.82;;;22.20;99.90;;;;;;4973219;28;20057;-71
2023/05/13 06:42:07;;;;;;;14.77;5.80;;;22.50;99.90;;;;;;4975890;28;20046;-71
2023/05/13 06:44:33;;;;;;;6.85;4.20;;;22.90;99.90;;;;;;4993883;28;20097;-70
2023/05/13 06:46:59;;;;;;;11.43;5.10;;;23.70;99.90;;;;;;4971246;28;20649;-71
2023/05/13 06:49:25;;;;;;;7.47;4.53;;;22.90;99.90;;;;;;4970707;28;20050;-71
2023/05/13 06:51:51;;;;;;;10.45;4.60;;;22.50;99.90;;;;;;4991334;28;20049;-71
2023/05/13 06:54:16;;;;;;;12.93;5.30;;;21.70;99.90;;;;;;4976471;28;20065;-70
2023/05/13 06:56:42;;;;;;;10.68;5.28;;;20.60;99.90;;;;;;4973418;28;20053;-70
2023/05/13 06:59:08;;;;;;;8.98;5.32;;;20.00;99.90;;;;;;4970024;28;20084;-70
2023/05/13 07:01:33;;;;;;;11.88;5.13;;;19.30;99.90;;;;;;4972833;28;20042;-70
2023/05/13 07:03:59;;;;;;;7.78;5.10;;;18.80;99.90;;;;;;4974754;28;20125;-70
2023/05/13 07:06:24;;;;;;;12.85;5.78;;;18.70;99.90;;;;;;4974937;28;20120;-71
2023/05/13 07:08:50;;;;;;;7.18;5.47;;;18.40;99.90;;;;;;4972097;28;20238;-70
2023/05/13 07:11:15;;;;;;;7.53;5.18;;;18.00;99.90;;;;;;4977892;28;20049;-70
2023/05/13 07:13:41;;;;;;;9.38;5.95;;;19.50;99.90;;;;;;4970785;28;20048;-70
2023/05/13 07:16:07;;;;;;;7.40;4.82;;;17.70;99.90;;;;;;4995273;28;20496;-70
2023/05/13 07:18:32;;;;;;;10.05;5.63;;;17.80;99.90;;;;;;4973371;28;20048;-71
2023/05/13 07:20:58;;;;;;;6.78;4.65;;;17.80;99.90;;;;;;4989235;28;20040;-70
2023/05/13 07:23:23;;;;;;;9.40;4.97;;;17.80;99.90;;;;;;4979783;28;20038;-71
2023/05/13 07:25:50;;;;;;;8.82;4.93;;;17.80;99.90;;;;;;4975711;28;20046;-71
2023/05/13 07:28:20;;;;;;;10.50;5.28;;;17.60;99.90;;;;;;4975484;28;20412;-71
2023/05/13 07:30:46;;;;;;;11.15;5.32;;;17.60;99.90;;;;;;4996612;28;20038;-71
2023/05/13 07:33:11;;;;;;;10.85;5.63;;;17.60;99.90;;;;;;4979762;28;20050;-71
2023/05/13 07:35:37;;;;;;;9.32;5.55;;;17.80;99.90;;;;;;4976397;28;20819;-71
2023/05/13 07:38:03;;;;;;;9.82;5.43;;;17.70;99.90;;;;;;4981194;28;20125;-71
2023/05/13 07:40:28;;;;;;;8.68;5.60;;;17.70;99.90;;;;;;4971473;28;20054;-71
2023/05/13 07:42:54;;;;;;;8.07;5.47;;;;;;;;;;4980049;28;20049;-72
2023/05/13 07:45:20;;;;;;;8.30;4.75;;;17.80;99.90;;;;;;4970551;28;20516;-71
2023/05/13 07:47:46;;;;;;;8.98;5.57;;;17.80;99.90;;;;;;4969493;28;20046;-71
2023/05/13 07:50:12;;;;;;;10.75;5.32;;;17.90;99.90;;;;;;4980987;28;20038;-71
2023/05/13 07:52:37;;;;;;;8.30;5.15;;;18.00;99.90;;;;;;4966166;28;20458;-71
2023/05/13 07:55:03;;;;;;;11.98;4.20;;;17.90;99.90;;;;;;4978130;28;20043;-71
2023/05/13 07:57:29;;;;;;;7.75;4.88;;;18.00;99.90;;;;;;4972406;28;20185;-71
2023/05/13 07:59:54;;;;;;;8.45;4.60;;;;;;;;;;4969504;28;20472;-71
2023/05/13 08:02:20;;;;;;;6.70;4.70;;;17.90;99.90;;;;;;4973193;28;20064;-71
2023/05/13 08:04:46;;;;;;;7.93;4.40;;;18.10;99.90;;;;;;4975114;28;20082;-71
2023/05/13 08:19:19;;;;;;;5.72;3.67;;;;;;;;;;5616232;23;20062;-71
2023/05/13 08:21:45;;;;;;;6.00;4.05;;;;;;;;;;4990099;28;20136;-72
2023/05/13 08:24:11;;;;;;;4.63;4.07;;;;;;;;;;4965804;28;20126;-71
2023/05/13 08:26:37;;;;;;;5.13;3.90;;;18.50;99.90;;;;;;4952897;28;20152;-71
2023/05/13 08:29:03;;;;;;;7.82;4.88;;;18.70;99.90;;;;;;4955166;28;20169;-71
2023/05/13 08:31:30;;;;;;;8.35;4.20;;;;;;;;;;4953806;28;20051;-71
2023/05/13 08:33:56;;;;;;;6.38;3.85;;;18.40;99.90;;;;;;4951072;28;20066;-71
2023/05/13 08:36:22;;;;;;;12.32;4.47;;;18.60;99.90;;;;;;4964670;28;20054;-71
2023/05/13 08:38:47;;;;;;;5.82;3.58;;;18.70;99.90;;;;;;4952400;28;20113;-71
2023/05/13 08:41:14;;;;;;;6.50;3.97;;;18.70;99.90;;;;;;4953944;28;20042;-71
2023/05/13 08:43:42;;;;;;;7.63;4.05;;;20.10;99.90;;;;;;4952460;28;20129;-71
2023/05/13 08:46:11;;;;;;;5.80;3.40;;;18.80;99.90;;;;;;4952367;28;20153;-71
2023/05/13 08:48:40;;;;;;;9.68;3.90;;;18.90;99.90;;;;;;4971386;28;20038;-71
2023/05/13 08:51:07;;;;;;;5.88;3.13;;;18.90;99.90;;;;;;4958231;28;20366;-71
2023/05/13 08:53:34;;;;;;;9.00;3.83;;;19.00;99.90;;;;;;4952789;28;20046;-71
2023/05/13 08:56:00;;;;;;;8.65;4.18;;;;;;;;;;4952234;28;20046;-71
2023/05/13 08:58:26;;;;;;;6.43;3.97;;;19.10;99.90;;;;;;4954440;28;20046;-71
2023/05/13 09:00:53;;;;;;;7.88;3.67;;;19.20;99.90;;;;;;4953131;28;20061;-71
2023/05/13 09:03:20;;;;;;;11.82;4.32;;;19.30;99.90;;;;;;4953874;28;20065;-71
2023/05/13 09:05:46;;;;;;;5.03;3.63;;;19.30;99.90;;;;;;4957818;28;20042;-71
2023/05/13 09:08:11;;;;;;;6.43;4.07;;;19.40;99.90;;;;;;4953558;28;20045;-71
2023/05/13 09:10:37;;;;;;;6.13;3.53;;;19.30;99.90;;;;;;4956160;28;20079;-71
2023/05/13 09:13:03;;;;;;;7.95;4.22;;;19.50;99.90;;;;;;4955581;28;20042;-71
2023/05/13 09:15:29;;;;;;;5.68;4.13;;;19.60;99.90;;;;;;4953499;28;20058;-71
2023/05/13 09:18:03;;;;;;;5.50;4.20;;;19.80;99.90;;;;;;4950758;28;20047;-71
2023/05/13 09:20:29;;;;;;;8.60;4.87;;;20.10;99.90;;;;;;4953498;28;20133;-71
2023/05/13 09:22:59;;;;;;;9.60;4.50;;;19.80;99.90;;;;;;4955772;28;20051;-71
2023/05/13 09:25:25;;;;;;;10.52;4.20;;;19.70;99.90;;;;;;4952771;28;20141;-71
2023/05/13 09:28:00;;;;;;;12.80;4.18;;;19.90;99.90;;;;;;4971608;28;20378;-71
2023/05/13 09:30:28;;;;;;;7.45;4.13;;;19.80;99.90;;;;;;4959265;28;20057;-71
2023/05/13 09:33:14;;;;;;;9.20;4.13;;;20.10;99.90;;;;;;4963300;28;20042;-71
2023/05/13 09:35:42;;;;;;;10.50;4.03;;;20.10;99.90;;;;;;4952692;28;20558;-71
2023/05/13 09:38:19;;;;;;;13.80;4.47;;;20.40;99.90;;;;;;4948458;28;20054;-70
2023/05/13 09:40:54;;;;;;;9.02;4.25;;;20.50;99.90;;;;;;4949395;28;20051;-71
2023/05/13 09:43:22;;;;;;;4.82;3.08;;;20.20;99.90;;;;;;4947381;28;20054;-71
2023/05/13 09:45:55;;;;;;;7.65;3.90;;;20.50;99.90;;;;;;4951253;28;20046;-71
2023/05/13 09:48:26;;;;;;;5.82;4.25;;;20.60;99.90;;;;;;4953823;28;20058;-71
2023/05/13 09:50:52;;;;;;;8.02;4.10;;;22.40;99.90;;;;;;4952513;28;20042;-71
2023/05/13 09:53:21;;;;;;;8.82;4.43;;;20.30;99.90;;;;;;4953214;28;20129;-71
2023/05/13 09:55:48;;;;;;;8.25;3.53;;;22.30;99.90;;;;;;4964177;28;20386;-71
2023/05/13 09:58:14;;;;;;;5.50;4.28;;;20.70;99.90;;;;;;4955389;28;20042;-71
2023/05/13 10:00:41;;;;;;;6.65;3.15;;;20.70;99.90;;;;;;4949609;28;20085;-71
2023/05/13 10:03:08;;;;;;;6.53;3.28;;;20.70;99.90;;;;;;4946818;28;20129;-71
2023/05/13 10:05:33;;;;;;;5.05;3.42;;;21.00;99.90;;;;;;4968755;28;20054;-70
2023/05/13 10:08:00;;;;;;;6.68;3.22;;;20.80;99.90;;;;;;4972064;28;20045;-71
2023/05/13 10:10:29;;;;;;;5.38;3.28;;;20.90;99.90;;;;;;4952988;28;20050;-71
2023/05/13 10:12:55;;;;;;;6.90;3.50;;;22.80;99.90;;;;;;4955660;28;20555;-71
2023/05/13 10:15:22;;;;;;;6.90;3.63;;;22.20;99.90;;;;;;4974867;28;20109;-71
2023/05/13 10:17:48;;;;;;;7.35;3.40;;;23.00;99.90;;;;;;4973913;28;20047;-71
2023/05/13 10:20:14;;;;;;;7.50;3.33;;;21.10;99.90;;;;;;4957614;28;20078;-71
2023/05/13 10:22:40;;;;;;;4.53;3.20;;;21.10;99.90;;;;;;4939822;28;20125;-71
2023/05/13 10:25:06;;;;;;;8.43;3.03;;;20.90;99.90;;;;;;4964303;28;20134;-71
2023/05/13 10:27:32;;;;;;;6.35;3.15;;;21.40;99.90;;;;;;4965998;28;20117;-71
2023/05/13 10:30:00;;;;;;;5.22;3.17;;;21.30;99.90;;;;;;4954973;28;20158;-71
2023/05/13 10:32:28;;;;;;;8.40;3.53;;;21.30;99.90;;;;;;4973460;28;20391;-71
2023/05/13 10:35:12;;;;;;;10.57;2.88;;;21.50;99.90;;;;;;4959511;28;20042;-71
2023/05/13 10:38:03;;;;;;;5.93;3.07;;;21.50;99.90;;;;;;4956499;28;20046;-71
2023/05/13 10:40:28;;;;;;;6.53;2.20;;;21.60;99.90;;;;;;4950704;28;20042;-71
2023/05/13 10:43:16;;;;;;;8.45;2.40;;;21.50;99.90;;;;;;4972100;28;20043;-71
2023/05/13 10:45:50;;;;;;;4.68;2.88;;;21.60;99.90;;;;;;4965849;28;20042;-71
2023/05/13 10:48:17;;;;;;;5.35;2.95;;;23.10;99.90;;;;;;4975170;28;20501;-71
2023/05/13 10:50:59;;;;;;;10.93;2.92;;;21.60;99.90;;;;;;4954880;28;20054;-71
2023/05/13 10:53:29;;;;;;;4.50;2.55;;;21.70;99.90;;;;;;4958470;28;20059;-71
2023/05/13 10:55:59;;;;;;;6.30;2.50;;;21.60;99.90;;;;;;4953701;28;20405;-71
2023/05/13 10:58:29;;;;;;;5.25;3.05;;;21.40;99.90;;;;;;4951149;28;20038;-71
2023/05/13 11:01:27;;;;;;;5.60;2.60;;;21.60;99.90;;;;;;4968912;28;20410;-71
2023/05/13 11:03:54;;;;;;;9.30;2.83;;;21.70;99.90;;;;;;4960850;28;20862;-71
2023/05/13 11:06:35;;;;;;;5.57;3.13;;;21.60;99.90;;;;;;4952102;28;20046;-71
2023/05/13 11:09:27;;;;;;;6.82;2.72;;;21.90;99.90;;;;;;4968677;28;20047;-71
2023/05/13 11:11:55;;;;;;;7.22;2.85;;;21.80;99.90;;;;;;4969522;28;20038;-71
2023/05/13 11:14:29;;;;;;;7.85;3.03;;;22.60;99.90;;;;;;4971311;28;20047;-71
2023/05/13 11:17:01;;;;;;;3.05;2.67;;;21.60;99.90;;;;;;4958236;28;20100;-71
2023/05/13 11:19:30;;;;;;;5.82;2.47;;;21.60;99.90;;;;;;4960686;28;20149;-71
2023/05/13 11:22:03;;;;;;;4.65;2.90;;;21.50;99.90;;;;;;4953130;28;20093;-71
2023/05/13 11:24:28;;;;;;;3.80;2.65;;;21.60;99.90;;;;;;4975365;28;20069;-71
2023/05/13 11:26:57;;;;;;;5.13;2.65;;;21.50;99.90;;;;;;4959342;28;20034;-71
2023/05/13 11:29:28;;;;;;;8.07;2.95;;;21.50;99.90;;;;;;4965283;28;20843;-71
2023/05/13 11:31:57;;;;;;;6.38;2.15;;;21.70;99.90;;;;;;4957323;28;20050;-71
2023/05/13 11:34:23;;;;;;;8.25;3.20;;;21.70;99.90;;;;;;4943975;28;20054;-71
2023/05/13 11:37:10;;;;;;;5.88;2.83;;;21.70;99.90;;;;;;4955017;28;20093;-71
2023/05/13 11:39:40;;;;;;;3.60;2.25;;;21.60;99.90;;;;;;4946470;28;20054;-71
2023/05/13 11:42:07;;;;;;;7.40;2.88;;;21.70;99.90;;;;;;4972714;28;20042;-71
2023/05/13 11:44:33;;;;;;;6.50;2.90;;;21.70;99.90;;;;;;4952369;28;20050;-72
2023/05/13 11:47:04;;;;;;;6.55;2.67;;;21.90;99.90;;;;;;4954557;28;20049;-71
2023/05/13 11:49:36;;;;;;;6.75;3.20;;;22.40;99.90;;;;;;4956140;28;20124;-71
2023/05/13 11:52:15;;;;;;;5.00;2.92;;;21.90;99.90;;;;;;4954759;28;20061;-71
2023/05/13 11:54:52;;;;;;;5.65;2.45;;;22.10;99.90;;;;;;4966570;28;20058;-72
2023/05/13 11:57:31;;;;;;;4.93;2.45;;;21.80;99.90;;;;;;4968740;28;20054;-71
2023/05/13 12:00:09;;;;;;;4.57;2.70;;;22.20;99.90;;;;;;4947851;28;20057;-71
2023/05/13 12:02:37;;;;;;;6.13;2.78;;;21.70;99.90;;;;;;4950858;28;20047;-71
2023/05/13 12:05:04;;;;;;;6.38;2.55;;;21.90;99.90;;;;;;4951208;28;20039;-71
2023/05/13 12:07:31;;;;;;;8.20;2.22;;;21.50;99.90;;;;;;4952704;28;20043;-71
2023/05/13 12:09:58;;;;;;;5.07;2.50;;;21.70;99.90;;;;;;4947145;28;20568;-71
2023/05/13 12:12:25;;;;;;;7.57;3.65;;;21.30;99.90;;;;;;4952537;28;20051;-72
2023/05/13 12:14:52;;;;;;;5.07;2.83;;;21.20;99.90;;;;;;4952574;28;20830;-71
2023/05/13 12:17:19;;;;;;;6.90;2.53;;;21.60;99.90;;;;;;4954407;28;20054;-71
2023/05/13 12:20:05;;;;;;;8.82;2.78;;;21.50;99.90;;;;;;4953091;28;20069;-71
2023/05/13 12:22:31;;;;;;;4.53;2.35;;;21.40;99.90;;;;;;4953085;28;20079;-72
2023/05/13 12:24:59;;;;;;;5.65;2.45;;;21.70;99.90;;;;;;4969410;28;20051;-72
2023/05/13 12:27:26;;;;;;;6.50;2.03;;;21.50;99.90;;;;;;4950989;28;20066;-73
2023/05/13 12:29:54;;;;;;;5.47;2.58;;;22.80;99.90;;;;;;4950511;28;20477;-72
2023/05/13 12:32:22;;;;;;;7.25;1.83;;;21.60;99.90;;;;;;4961860;28;20075;-72
2023/05/13 12:34:49;;;;;;;4.22;1.90;;;21.60;99.90;;;;;;4963202;28;20086;-72
2023/05/13 12:37:15;;;;;;;6.72;1.95;;;21.20;99.90;;;;;;4940400;28;20117;-72
2023/05/13 12:39:42;;;;;;;2.67;1.77;;;21.30;99.90;;;;;;4947716;28;20120;-73
2023/05/13 12:42:15;;;;;;;3.15;1.70;;;21.20;99.90;;;;;;4943812;28;20117;-73
2023/05/13 12:44:45;;;;;;;6.38;1.83;;;21.30;99.90;;;;;;4965257;28;20042;-72
2023/05/13 12:47:14;;;;;;;8.73;2.40;;;21.50;99.90;;;;;;4949810;28;20085;-73
2023/05/13 12:49:59;;;;;;;4.85;2.15;;;21.90;99.90;;;;;;4968035;28;20043;-73
2023/05/13 12:52:25;;;;;;;4.72;2.05;;;21.50;99.90;;;;;;4968642;28;20420;-73
2023/05/13 12:54:50;;;;;;;5.45;2.30;;;22.10;99.90;;;;;;4966859;28;20046;-72
2023/05/13 12:57:17;;;;;;;3.60;2.22;;;22.90;99.90;;;;;;4949024;28;20050;-73
2023/05/13 12:59:44;;;;;;;6.30;2.67;;;22.00;99.90;;;;;;4947134;28;20050;-73
2023/05/13 13:02:10;;;;;;;9.07;3.13;;;22.30;99.90;;;;;;4950701;28;20127;-73
2023/05/13 13:04:36;;;;;;;5.78;2.45;;;22.00;99.90;;;;;;4951114;28;20121;-73
2023/05/13 13:07:01;;;;;;;5.45;2.55;;;22.20;99.90;;;;;;4936731;28;20487;-73
2023/05/13 13:09:27;;;;;;;8.63;2.55;;;22.60;99.90;;;;;;4972477;28;20732;-72
2023/05/13 13:11:53;;;;;;;3.80;1.98;;;21.70;99.90;;;;;;4956302;28;20042;-72
2023/05/13 13:14:18;;;;;;;7.53;2.38;;;21.90;99.90;;;;;;4954032;28;20055;-73
2023/05/13 13:16:44;;;;;;;3.45;2.13;;;21.90;99.90;;;;;;4960376;28;20799;-73
2023/05/13 13:19:09;;;;;;;7.93;3.10;;;21.80;99.90;;;;;;4952059;28;20065;-73
2023/05/13 13:21:35;;;;;;;7.90;2.80;;;23.00;99.90;;;;;;4968856;28;20042;-73
2023/05/13 13:24:00;;;;;;;5.00;2.10;;;21.70;99.90;;;;;;4969578;28;20042;-73
2023/05/13 13:26:26;;;;;;;7.25;3.63;;;22.10;99.90;;;;;;4952129;28;20515;-73
2023/05/13 13:28:51;;;;;;;8.50;3.70;;;22.00;99.90;;;;;;4964516;28;20489;-73